Time;durP1;ratioP1;P1;durP2;ratioP2;P2;SDS_P1;SDS_P2;PMS_P1;PMS_P2;Temp;Humidity;BMP_temperature;BMP_pressure;BME280_temperature;BME280_humidity;BME280_pressure;Samples;Min_cycle;Max_cycle;Signal;HPM_P1;HPM_P2
2022/03/15 00:01:02;;;;;;;7.40;4.38;;;2.70;99.90;;;;;;5001781;28;20053;-34
2022/03/15 00:03:27;;;;;;;9.48;3.60;;;2.70;99.90;;;;;;5002234;28;20053;-33
2022/03/15 00:05:53;;;;;;;6.45;4.18;;;2.60;99.90;;;;;;5005713;28;20088;-33
2022/03/15 00:08:19;;;;;;;8.63;4.38;;;2.80;99.90;;;;;;5003064;28;20034;-35
2022/03/15 00:10:47;;;;;;;6.88;3.80;;;2.80;99.90;;;;;;5003218;28;20037;-34
2022/03/15 00:13:13;;;;;;;5.03;4.15;;;2.90;99.90;;;;;;5002985;28;20504;-34
2022/03/15 00:15:41;;;;;;;5.63;3.63;;;3.00;99.90;;;;;;5005084;28;20141;-33
2022/03/15 00:18:07;;;;;;;9.02;3.97;;;3.00;99.90;;;;;;5002719;28;20085;-35
2022/03/15 00:20:33;;;;;;;6.35;3.70;;;2.90;99.90;;;;;;4999861;28;20180;-33
2022/03/15 00:23:00;;;;;;;7.25;3.97;;;2.90;99.90;;;;;;5002180;28;20196;-33
2022/03/15 00:25:26;;;;;;;6.28;4.13;;;3.00;99.90;;;;;;5001781;28;20030;-33
2022/03/15 00:27:53;;;;;;;8.50;3.78;;;3.00;99.90;;;;;;5003694;28;20021;-33
2022/03/15 00:30:21;;;;;;;8.23;4.20;;;3.10;99.90;;;;;;5003319;28;20030;-35
2022/03/15 00:32:47;;;;;;;12.27;4.22;;;3.20;99.90;;;;;;5001861;28;20046;-33
2022/03/15 00:35:18;;;;;;;6.70;3.95;;;3.40;99.90;;;;;;4999998;28;20026;-33
2022/03/15 00:37:51;;;;;;;5.40;4.45;;;3.50;99.90;;;;;;4997351;28;20029;-34
2022/03/15 00:40:18;;;;;;;10.48;3.58;;;3.60;99.90;;;;;;5003707;28;20025;-33
2022/03/15 00:42:48;;;;;;;5.80;3.78;;;3.60;99.90;;;;;;5006076;28;20053;-34
2022/03/15 00:45:14;;;;;;;7.15;3.88;;;3.70;99.90;;;;;;5004129;28;20026;-34
2022/03/15 00:47:40;;;;;;;5.03;3.72;;;3.70;99.90;;;;;;4999570;28;20031;-34
2022/03/15 00:50:06;;;;;;;13.20;6.60;;;3.70;99.90;;;;;;5001387;28;20418;-34
2022/03/15 00:52:32;;;;;;;12.98;7.25;;;3.70;99.90;;;;;;5005029;28;20030;-33
2022/03/15 00:54:58;;;;;;;10.77;5.25;;;3.80;99.90;;;;;;5002169;28;20335;-33
2022/03/15 00:57:23;;;;;;;9.88;4.65;;;3.80;99.90;;;;;;5006217;28;20034;-33
2022/03/15 00:59:49;;;;;;;11.15;4.45;;;3.80;99.90;;;;;;5003610;28;20053;-35
2022/03/15 01:02:15;;;;;;;5.05;3.70;;;3.80;99.90;;;;;;5000175;28;20042;-33
2022/03/15 01:04:40;;;;;;;6.28;3.53;;;3.80;99.90;;;;;;5004980;28;20095;-33
2022/03/15 01:07:06;;;;;;;4.80;4.40;;;3.80;99.90;;;;;;5007176;28;20526;-33
2022/03/15 01:09:31;;;;;;;6.93;3.80;;;3.80;99.90;;;;;;5001253;28;20108;-34
2022/03/15 01:11:59;;;;;;;4.32;3.90;;;3.60;99.90;;;;;;5011043;28;20060;-34
2022/03/15 01:14:27;;;;;;;5.93;3.92;;;3.60;99.90;;;;;;4986709;28;20105;-33
2022/03/15 01:16:54;;;;;;;5.22;3.75;;;3.50;99.90;;;;;;5006091;28;20581;-33
2022/03/15 01:19:20;;;;;;;7.70;3.50;;;3.40;99.90;;;;;;5002820;28;20022;-33
2022/03/15 01:21:45;;;;;;;4.88;3.97;;;3.30;99.90;;;;;;5008613;28;20395;-34
2022/03/15 01:24:11;;;;;;;5.88;4.10;;;3.20;99.90;;;;;;5002880;28;20153;-33
2022/03/15 01:26:39;;;;;;;6.72;3.53;;;3.20;99.90;;;;;;5004910;28;20022;-34
2022/03/15 01:29:05;;;;;;;8.30;4.72;;;3.20;99.90;;;;;;5004114;28;20026;-33
2022/03/15 01:31:31;;;;;;;8.15;3.72;;;3.30;99.90;;;;;;5004366;28;20034;-34
2022/03/15 01:33:57;;;;;;;5.60;3.75;;;3.40;99.90;;;;;;5001404;28;20448;-34
2022/03/15 01:36:23;;;;;;;6.10;3.40;;;3.40;99.90;;;;;;5004367;28;20056;-34
2022/03/15 01:38:50;;;;;;;8.45;4.00;;;3.30;99.90;;;;;;5003829;28;20057;-34
2022/03/15 01:41:16;;;;;;;6.57;3.88;;;3.00;99.90;;;;;;5005697;28;20041;-33
2022/03/15 01:43:42;;;;;;;7.72;4.03;;;3.00;99.90;;;;;;5008866;28;20025;-33
2022/03/15 01:46:07;;;;;;;5.72;4.15;;;3.00;99.90;;;;;;5007263;28;20112;-33
2022/03/15 01:48:33;;;;;;;7.13;3.95;;;3.10;99.90;;;;;;5003989;28;20026;-34
2022/03/15 01:50:59;;;;;;;6.80;4.28;;;3.20;99.90;;;;;;5006345;28;20044;-33
2022/03/15 01:53:25;;;;;;;5.07;4.00;;;3.30;99.90;;;;;;5003103;28;20084;-33
2022/03/15 01:55:51;;;;;;;8.95;4.35;;;3.30;99.90;;;;;;5000072;28;20124;-35
2022/03/15 01:58:17;;;;;;;6.75;4.30;;;3.20;99.90;;;;;;5009654;28;20030;-34
2022/03/15 02:00:44;;;;;;;8.80;4.30;;;3.20;99.90;;;;;;5003334;28;20038;-33
2022/03/15 02:03:10;;;;;;;7.45;3.90;;;3.30;99.90;;;;;;5001695;28;20037;-34
2022/03/15 02:05:36;;;;;;;7.63;4.10;;;3.20;99.90;;;;;;5006784;28;20026;-33
2022/03/15 02:08:13;;;;;;;5.20;4.40;;;3.20;99.90;;;;;;5008586;28;20096;-36
2022/03/15 02:10:39;;;;;;;8.23;3.72;;;3.30;99.90;;;;;;5001711;28;20477;-34
2022/03/15 02:13:04;;;;;;;6.50;4.68;;;3.40;99.90;;;;;;5005922;28;20021;-34
2022/03/15 02:15:30;;;;;;;4.90;3.65;;;3.40;99.90;;;;;;5006182;28;20502;-33
2022/03/15 02:17:56;;;;;;;9.80;4.45;;;3.40;99.90;;;;;;5000662;28;20124;-33
2022/03/15 02:20:22;;;;;;;5.82;4.07;;;3.40;99.90;;;;;;5003347;28;20510;-33
2022/03/15 02:22:48;;;;;;;5.45;4.47;;;3.40;99.90;;;;;;5004032;28;20055;-33
2022/03/15 02:25:13;;;;;;;7.70;4.38;;;3.30;99.90;;;;;;5003230;28;20084;-34
2022/03/15 02:27:39;;;;;;;4.28;3.88;;;3.30;99.90;;;;;;4989251;28;20025;-34
2022/03/15 02:30:06;;;;;;;12.30;4.82;;;3.20;99.90;;;;;;5006051;28;20390;-35
2022/03/15 02:32:33;;;;;;;5.97;3.85;;;3.20;99.90;;;;;;5003503;28;20423;-33
2022/03/15 02:34:58;;;;;;;6.68;4.55;;;3.20;99.90;;;;;;4998423;28;20418;-33
2022/03/15 02:37:24;;;;;;;6.93;4.28;;;3.20;99.90;;;;;;5009141;28;20030;-33
2022/03/15 02:39:50;;;;;;;7.47;4.13;;;3.30;99.90;;;;;;5000584;28;20473;-33
2022/03/15 02:42:17;;;;;;;6.15;3.53;;;3.40;99.90;;;;;;5002754;28;20050;-34
2022/03/15 02:44:42;;;;;;;5.60;3.67;;;3.40;99.90;;;;;;5003159;28;20026;-34
2022/03/15 02:47:08;;;;;;;4.63;3.22;;;3.40;99.90;;;;;;5007696;28;20506;-33
2022/03/15 02:49:34;;;;;;;4.35;3.80;;;3.40;99.90;;;;;;5004470;28;20534;-33
2022/03/15 02:51:59;;;;;;;5.55;4.20;;;3.30;99.90;;;;;;5002414;28;20648;-34
2022/03/15 02:54:25;;;;;;;8.68;4.07;;;3.40;99.90;;;;;;5003747;28;20037;-34
2022/03/15 02:56:51;;;;;;;4.72;3.45;;;3.30;99.90;;;;;;5004589;28;20038;-33
2022/03/15 02:59:17;;;;;;;5.72;4.07;;;3.10;99.90;;;;;;5000683;28;20018;-33
2022/03/15 03:01:43;;;;;;;5.47;4.10;;;3.00;99.90;;;;;;5003126;28;20061;-35
2022/03/15 03:04:10;;;;;;;7.15;3.85;;;3.00;99.90;;;;;;5004556;28;20064;-33
2022/03/15 03:06:41;;;;;;;6.28;4.65;;;2.90;99.90;;;;;;5005419;28;20038;-33
2022/03/15 03:09:07;;;;;;;6.28;3.72;;;3.00;99.90;;;;;;5006551;28;20168;-33
2022/03/15 03:11:33;;;;;;;10.15;3.78;;;3.20;99.90;;;;;;5006931;28;20486;-34
2022/03/15 03:13:59;;;;;;;8.73;4.43;;;3.30;99.90;;;;;;5007174;28;20026;-34
2022/03/15 03:16:26;;;;;;;6.35;3.80;;;3.30;99.90;;;;;;5005579;28;20037;-33
2022/03/15 03:18:57;;;;;;;6.50;3.47;;;3.30;99.90;;;;;;5003837;28;20129;-34
2022/03/15 03:21:27;;;;;;;7.72;4.15;;;3.20;99.90;;;;;;5001344;28;20387;-34
2022/03/15 03:23:53;;;;;;;7.18;4.20;;;3.00;99.90;;;;;;4999032;28;20053;-33
2022/03/15 03:26:23;;;;;;;5.05;3.70;;;2.90;99.90;;;;;;5005154;28;20356;-33
2022/03/15 03:28:50;;;;;;;5.72;3.80;;;3.00;99.90;;;;;;5003426;28;20029;-34
2022/03/15 03:31:16;;;;;;;5.97;4.18;;;3.10;99.90;;;;;;5001198;28;20040;-33
2022/03/15 03:33:42;;;;;;;4.35;3.60;;;3.20;99.90;;;;;;4997439;28;20038;-34
2022/03/15 03:36:09;;;;;;;6.03;3.72;;;3.20;99.90;;;;;;5004835;28;20029;-33
2022/03/15 03:38:35;;;;;;;6.07;4.80;;;3.10;99.90;;;;;;5003729;28;20049;-33
2022/03/15 03:41:02;;;;;;;6.03;3.95;;;2.90;99.90;;;;;;5006350;28;20496;-33
2022/03/15 03:43:28;;;;;;;6.90;4.28;;;2.80;99.90;;;;;;5004474;28;20038;-33
2022/03/15 03:45:55;;;;;;;12.43;4.72;;;2.90;99.90;;;;;;5001692;28;20026;-33
2022/03/15 03:48:23;;;;;;;9.20;4.47;;;3.00;99.90;;;;;;5005493;28;20112;-33
2022/03/15 03:50:49;;;;;;;4.75;3.88;;;3.10;99.90;;;;;;5006140;28;20124;-33
2022/03/15 03:53:15;;;;;;;6.85;3.88;;;3.20;99.90;;;;;;5002915;28;20523;-33
2022/03/15 03:55:40;;;;;;;8.48;4.53;;;3.20;99.90;;;;;;5002564;28;20034;-33
2022/03/15 03:58:06;;;;;;;6.45;4.68;;;3.20;99.90;;;;;;5002167;28;20073;-33
2022/03/15 04:00:32;;;;;;;9.68;4.63;;;3.10;99.90;;;;;;5000181;28;20517;-35
2022/03/15 04:02:58;;;;;;;8.05;3.90;;;3.10;99.90;;;;;;4999925;28;20037;-33
2022/03/15 04:05:25;;;;;;;5.25;3.85;;;3.00;99.90;;;;;;5002462;28;20018;-33
2022/03/15 04:07:51;;;;;;;7.47;4.28;;;3.10;99.90;;;;;;5002976;28;20125;-33
2022/03/15 04:10:22;;;;;;;20.48;10.32;;;3.10;99.90;;;;;;5002284;28;20447;-34
2022/03/15 04:12:47;;;;;;;14.05;7.88;;;3.10;99.90;;;;;;5000810;28;20041;-34
2022/03/15 04:15:13;;;;;;;13.40;6.00;;;3.20;99.90;;;;;;5000728;28;20038;-34
2022/03/15 04:17:39;;;;;;;9.93;4.80;;;3.30;99.90;;;;;;5002149;28;20522;-33
2022/03/15 04:20:06;;;;;;;6.05;4.45;;;3.40;99.90;;;;;;5000385;28;20491;-34
2022/03/15 04:22:31;;;;;;;4.43;4.00;;;3.40;99.90;;;;;;4998828;28;20029;-33
2022/03/15 04:24:57;;;;;;;5.45;3.85;;;3.40;99.90;;;;;;5005233;28;20471;-34
2022/03/15 04:27:23;;;;;;;5.75;3.90;;;3.50;99.90;;;;;;5004354;28;20033;-35
2022/03/15 04:29:49;;;;;;;5.75;4.13;;;3.40;99.90;;;;;;5000652;28;20045;-34
2022/03/15 04:32:15;;;;;;;6.75;3.80;;;3.40;99.90;;;;;;5002900;28;20058;-33
2022/03/15 04:34:40;;;;;;;6.85;4.55;;;3.20;99.90;;;;;;5000533;28;20503;-33
2022/03/15 04:37:06;;;;;;;5.10;3.97;;;3.10;99.90;;;;;;5001922;28;20053;-34
2022/03/15 04:39:33;;;;;;;6.60;3.92;;;2.90;99.90;;;;;;5002404;28;21649;-33
2022/03/15 04:41:58;;;;;;;5.75;4.15;;;2.80;99.90;;;;;;4996139;28;20073;-33
2022/03/15 04:44:24;;;;;;;6.43;3.97;;;2.80;99.90;;;;;;5003231;28;20491;-34
2022/03/15 04:46:50;;;;;;;8.52;4.55;;;2.80;99.90;;;;;;5001143;28;20407;-33
2022/03/15 04:49:15;;;;;;;5.15;3.65;;;2.80;99.90;;;;;;5007923;28;20026;-34
2022/03/15 04:51:41;;;;;;;6.35;3.75;;;2.90;99.90;;;;;;5009179;28;20044;-33
2022/03/15 04:54:06;;;;;;;6.82;4.28;;;3.00;99.90;;;;;;5003962;28;20479;-34
2022/03/15 04:56:32;;;;;;;6.60;4.25;;;3.00;99.90;;;;;;5006586;28;20723;-33
2022/03/15 04:58:58;;;;;;;7.25;4.35;;;3.00;99.90;;;;;;5009696;28;20107;-33
2022/03/15 05:01:23;;;;;;;5.25;4.47;;;3.10;99.90;;;;;;5008384;28;20084;-33
2022/03/15 05:03:49;;;;;;;4.07;3.58;;;3.10;99.90;;;;;;5003245;28;20083;-33
2022/03/15 05:06:15;;;;;;;5.90;4.35;;;3.10;99.90;;;;;;5007213;28;20034;-34
2022/03/15 05:08:40;;;;;;;7.97;4.80;;;3.10;99.90;;;;;;4991143;28;20026;-34
2022/03/15 05:11:06;;;;;;;8.63;4.22;;;3.10;99.90;;;;;;5010003;28;20022;-34
2022/03/15 05:13:37;;;;;;;8.75;4.30;;;3.10;99.90;;;;;;5007232;28;20033;-33
2022/03/15 05:16:03;;;;;;;5.30;4.10;;;3.10;99.90;;;;;;5007654;28;20088;-33
2022/03/15 05:18:29;;;;;;;6.38;3.92;;;3.10;99.90;;;;;;5006782;28;20133;-33
2022/03/15 05:20:55;;;;;;;7.47;4.07;;;3.20;99.90;;;;;;5005142;28;20196;-33
2022/03/15 05:23:21;;;;;;;8.13;4.43;;;3.10;99.90;;;;;;5005748;28;20041;-33
2022/03/15 05:25:46;;;;;;;8.95;4.22;;;2.60;99.90;;;;;;5009978;28;20568;-34
2022/03/15 05:28:12;;;;;;;7.75;4.00;;;2.60;99.90;;;;;;5005418;28;20056;-34
2022/03/15 05:30:38;;;;;;;4.85;4.15;;;2.40;99.90;;;;;;5004744;28;20584;-34
2022/03/15 05:33:04;;;;;;;4.35;3.50;;;2.30;99.90;;;;;;5005062;28;20034;-33
2022/03/15 05:35:30;;;;;;;7.57;4.40;;;2.40;99.90;;;;;;5007058;28;20034;-33
2022/03/15 05:37:55;;;;;;;7.15;4.28;;;2.50;99.90;;;;;;5008074;28;20476;-33
2022/03/15 05:40:21;;;;;;;6.05;4.30;;;2.60;99.90;;;;;;5006714;28;20038;-34
2022/03/15 05:42:47;;;;;;;8.05;5.28;;;2.70;99.90;;;;;;5009908;28;20088;-33
2022/03/15 05:45:13;;;;;;;6.38;4.68;;;2.80;99.90;;;;;;5006359;28;20590;-34
2022/03/15 05:47:38;;;;;;;7.75;5.28;;;2.90;99.90;;;;;;5004455;28;20415;-33
2022/03/15 05:50:06;;;;;;;7.53;4.55;;;2.90;99.90;;;;;;5004392;28;20022;-33
2022/03/15 05:52:31;;;;;;;6.30;4.20;;;3.00;99.90;;;;;;5008355;28;20621;-34
2022/03/15 05:54:57;;;;;;;4.20;3.45;;;3.00;99.90;;;;;;5003861;28;20071;-33
2022/03/15 05:57:23;;;;;;;9.43;4.72;;;3.10;99.90;;;;;;5005877;28;20494;-34
2022/03/15 05:59:49;;;;;;;8.38;5.13;;;3.10;99.90;;;;;;5007668;28;20034;-34
2022/03/15 06:02:15;;;;;;;9.82;4.53;;;3.10;99.90;;;;;;5005044;28;20030;-34
2022/03/15 06:04:40;;;;;;;6.55;4.43;;;3.20;99.90;;;;;;5003007;28;20025;-33
2022/03/15 06:07:06;;;;;;;8.40;5.05;;;3.20;99.90;;;;;;5003757;28;20029;-34
2022/03/15 06:09:32;;;;;;;8.45;5.43;;;3.30;99.90;;;;;;5007521;28;20026;-34
2022/03/15 06:11:58;;;;;;;5.88;5.00;;;3.30;99.90;;;;;;5003038;28;20582;-33
2022/03/15 06:14:24;;;;;;;6.97;5.85;;;3.40;99.90;;;;;;5004475;28;20568;-33
2022/03/15 06:16:50;;;;;;;7.38;4.78;;;3.50;99.90;;;;;;4984042;28;20160;-34
2022/03/15 06:19:16;;;;;;;8.45;5.72;;;3.50;99.90;;;;;;5008338;28;20105;-34
2022/03/15 06:21:41;;;;;;;11.40;4.93;;;3.60;99.90;;;;;;5002380;28;20385;-35
2022/03/15 06:24:07;;;;;;;12.05;5.47;;;3.50;99.90;;;;;;5005585;28;20022;-34
2022/03/15 06:26:34;;;;;;;7.40;4.95;;;3.60;99.90;;;;;;5002295;28;20056;-33
2022/03/15 06:29:03;;;;;;;7.00;4.82;;;3.60;99.90;;;;;;5002385;28;20033;-33
2022/03/15 06:31:29;;;;;;;;;;;3.60;99.90;;;;;;5009079;28;20057;-35
2022/03/15 06:33:55;;;;;;;4.47;3.30;;;3.50;99.90;;;;;;5002157;28;19917;-33
2022/03/15 06:36:20;;;;;;;7.03;4.35;;;3.50;99.90;;;;;;5005849;28;20033;-33
2022/03/15 06:38:46;;;;;;;10.85;4.22;;;3.50;99.90;;;;;;4998041;28;20075;-33
2022/03/15 06:41:12;;;;;;;8.10;5.10;;;3.60;99.90;;;;;;5006625;28;20038;-34
2022/03/15 06:43:39;;;;;;;9.43;5.30;;;3.70;99.90;;;;;;5006856;28;20030;-34
2022/03/15 06:46:05;;;;;;;9.63;5.85;;;3.80;99.90;;;;;;5005712;28;20034;-33
2022/03/15 06:48:31;;;;;;;9.88;4.78;;;3.80;99.90;;;;;;5002551;28;20044;-34
2022/03/15 06:50:57;;;;;;;9.95;5.80;;;3.90;99.90;;;;;;5000585;28;20367;-33
2022/03/15 06:53:23;;;;;;;15.40;6.43;;;4.00;99.90;;;;;;5007906;28;20036;-34
2022/03/15 06:55:49;;;;;;;9.57;5.13;;;4.00;99.90;;;;;;4997171;28;20030;-33
2022/03/15 06:58:14;;;;;;;10.85;5.57;;;4.00;99.90;;;;;;5005604;28;20029;-33
2022/03/15 07:00:40;;;;;;;6.80;4.47;;;4.10;99.90;;;;;;4987509;28;20153;-34
2022/03/15 07:03:06;;;;;;;7.63;5.35;;;4.10;99.90;;;;;;5003598;28;20088;-33
2022/03/15 07:05:31;;;;;;;7.53;5.20;;;4.10;99.90;;;;;;4998725;28;20033;-34
2022/03/15 07:07:57;;;;;;;7.10;4.78;;;4.20;99.90;;;;;;5004876;28;20029;-33
2022/03/15 07:10:23;;;;;;;8.50;5.05;;;4.20;99.90;;;;;;5003553;28;20176;-34
2022/03/15 07:12:49;;;;;;;8.57;5.00;;;4.20;99.90;;;;;;5001502;28;20684;-34
2022/03/15 07:15:16;;;;;;;6.53;5.10;;;4.30;99.90;;;;;;5001120;28;20049;-34
2022/03/15 07:17:53;;;;;;;8.30;5.68;;;4.30;99.90;;;;;;4998894;28;20050;-34
2022/03/15 07:20:19;;;;;;;10.63;5.85;;;4.40;99.90;;;;;;5001031;28;20034;-34
2022/03/15 07:22:45;;;;;;;7.20;5.38;;;4.50;99.90;;;;;;5005008;28;20017;-34
2022/03/15 07:25:11;;;;;;;8.52;5.32;;;4.50;99.90;;;;;;5007447;28;20045;-33
2022/03/15 07:27:38;;;;;;;7.28;4.72;;;4.60;99.90;;;;;;5005904;28;20030;-34
2022/03/15 07:30:04;;;;;;;13.15;6.18;;;4.60;99.90;;;;;;5006560;28;20724;-34
2022/03/15 07:32:30;;;;;;;10.57;6.18;;;4.60;99.90;;;;;;5008215;28;20034;-33
2022/03/15 07:34:56;;;;;;;9.68;5.88;;;4.70;99.90;;;;;;5005456;28;20040;-33
2022/03/15 07:37:21;;;;;;;10.88;5.43;;;4.80;99.90;;;;;;5001537;28;20084;-36
2022/03/15 07:39:47;;;;;;;7.95;5.57;;;4.80;99.90;;;;;;5008710;28;20368;-34
2022/03/15 07:42:13;;;;;;;8.93;6.10;;;4.90;99.90;;;;;;5003412;28;20417;-33
2022/03/15 07:44:42;;;;;;;7.60;4.53;;;4.90;99.90;;;;;;5005263;28;20522;-34
2022/03/15 07:47:14;;;;;;;10.32;6.43;;;4.90;99.90;;;;;;5008529;28;20598;-34
2022/03/15 07:49:40;;;;;;;6.57;5.43;;;4.90;99.90;;;;;;5008500;28;20120;-34
2022/03/15 07:52:06;;;;;;;7.85;5.20;;;4.90;99.90;;;;;;5006872;28;20058;-34
2022/03/15 07:54:32;;;;;;;11.27;6.07;;;5.00;99.90;;;;;;4983655;28;20037;-34
2022/03/15 07:56:57;;;;;;;17.98;6.65;;;5.10;99.90;;;;;;4999916;28;20387;-33
2022/03/15 07:59:23;;;;;;;8.82;6.07;;;5.10;99.90;;;;;;5007140;28;20083;-35
2022/03/15 08:01:49;;;;;;;7.20;5.03;;;5.20;99.90;;;;;;5001541;28;20550;-33
2022/03/15 08:04:14;;;;;;;9.60;6.32;;;5.20;99.90;;;;;;5004197;28;20030;-34
2022/03/15 08:06:40;;;;;;;6.68;5.55;;;5.30;99.90;;;;;;5008106;28;20026;-34
2022/03/15 08:09:06;;;;;;;11.02;6.00;;;5.40;99.90;;;;;;5004993;28;20028;-34
2022/03/15 08:11:32;;;;;;;7.55;6.00;;;5.50;99.90;;;;;;5007253;28;20502;-35
2022/03/15 08:13:59;;;;;;;11.43;5.32;;;5.60;99.90;;;;;;4999764;28;20410;-33
2022/03/15 08:16:24;;;;;;;10.43;5.32;;;5.70;99.90;;;;;;5007286;28;20038;-33
2022/03/15 08:18:51;;;;;;;9.52;5.88;;;5.80;99.90;;;;;;4998521;28;21618;-34
2022/03/15 08:21:19;;;;;;;10.00;5.78;;;5.90;99.90;;;;;;5005676;28;20033;-33
2022/03/15 08:23:45;;;;;;;9.20;6.28;;;6.00;99.90;;;;;;4998244;28;20029;-33
2022/03/15 08:26:11;;;;;;;8.93;5.85;;;6.00;99.90;;;;;;4999546;28;20541;-34
2022/03/15 08:28:37;;;;;;;11.75;6.55;;;6.10;99.90;;;;;;5008061;28;20069;-33
2022/03/15 08:31:03;;;;;;;9.45;5.90;;;6.10;99.90;;;;;;5004671;28;20037;-34
2022/03/15 08:33:29;;;;;;;9.50;5.63;;;6.20;99.90;;;;;;4983024;28;20026;-33
2022/03/15 08:35:54;;;;;;;11.68;5.90;;;6.40;99.90;;;;;;5004193;28;20748;-33
2022/03/15 08:38:20;;;;;;;13.60;6.07;;;6.50;99.90;;;;;;5005910;28;20022;-34
2022/03/15 08:40:46;;;;;;;10.45;6.53;;;6.60;99.90;;;;;;5002759;28;20065;-33
2022/03/15 08:43:12;;;;;;;13.07;6.10;;;6.70;99.90;;;;;;5006089;28;20127;-34
2022/03/15 08:45:39;;;;;;;11.88;6.53;;;6.80;99.90;;;;;;5006444;28;20057;-33
2022/03/15 08:48:05;;;;;;;14.93;7.00;;;6.90;99.90;;;;;;5006300;28;20480;-33
2022/03/15 08:50:31;;;;;;;14.25;6.80;;;7.00;99.90;;;;;;5007535;28;20795;-34
2022/03/15 08:52:57;;;;;;;10.43;6.03;;;7.10;99.90;;;;;;5001656;28;20104;-33
2022/03/15 08:55:24;;;;;;;9.57;5.35;;;7.30;99.90;;;;;;5002343;28;20407;-36
2022/03/15 08:57:49;;;;;;;8.88;4.85;;;7.40;99.90;;;;;;5002522;28;20088;-33
2022/03/15 09:00:16;;;;;;;13.10;5.18;;;7.50;99.90;;;;;;5003481;28;20075;-34
2022/03/15 09:02:41;;;;;;;6.03;4.63;;;7.60;99.90;;;;;;4999891;28;20071;-33
2022/03/15 09:05:07;;;;;;;9.30;5.03;;;7.70;99.90;;;;;;5001070;28;20388;-34
2022/03/15 09:07:36;;;;;;;6.80;4.80;;;7.60;99.20;;;;;;5008064;28;20522;-34
2022/03/15 09:10:03;;;;;;;3.42;3.03;;;7.70;99.90;;;;;;4998442;28;20030;-33
2022/03/15 09:12:28;;;;;;;6.53;4.53;;;7.90;99.20;;;;;;5007677;28;20487;-34
2022/03/15 09:14:54;;;;;;;6.03;4.07;;;8.00;99.10;;;;;;5003804;28;20029;-33
2022/03/15 09:17:20;;;;;;;7.65;4.88;;;8.00;99.70;;;;;;5004154;28;20050;-34
2022/03/15 09:19:45;;;;;;;11.70;4.78;;;8.00;99.90;;;;;;5005490;28;20049;-33
2022/03/15 09:22:11;;;;;;;7.18;3.83;;;8.10;98.20;;;;;;5001893;28;20399;-33
2022/03/15 09:24:37;;;;;;;9.48;4.63;;;8.20;98.80;;;;;;5001996;28;20029;-33
2022/03/15 09:27:04;;;;;;;7.03;3.95;;;8.20;98.60;;;;;;5005741;28;20036;-34
2022/03/15 09:29:30;;;;;;;5.82;4.57;;;8.30;98.10;;;;;;5004635;28;20044;-34
2022/03/15 09:31:56;;;;;;;6.00;4.07;;;8.30;99.00;;;;;;5004434;28;20038;-34
2022/03/15 09:34:22;;;;;;;4.68;3.05;;;8.40;97.60;;;;;;5007138;28;20033;-33
2022/03/15 09:36:51;;;;;;;9.60;4.70;;;8.40;96.40;;;;;;5011483;28;20096;-34
2022/03/15 09:39:18;;;;;;;6.80;3.72;;;8.50;97.50;;;;;;5008995;28;20034;-35
2022/03/15 09:41:47;;;;;;;5.60;3.40;;;8.50;97.40;;;;;;5008971;28;20037;-33
2022/03/15 09:44:17;;;;;;;6.47;4.18;;;8.60;97.70;;;;;;5008721;28;20054;-34
2022/03/15 09:46:52;;;;;;;5.85;4.38;;;8.70;95.90;;;;;;5001462;28;20034;-33
2022/03/15 09:49:19;;;;;;;5.97;4.10;;;8.70;96.50;;;;;;5008021;28;20044;-34
2022/03/15 09:51:46;;;;;;;3.55;2.90;;;8.70;97.00;;;;;;5008015;28;20380;-34
2022/03/15 09:54:15;;;;;;;9.40;4.90;;;8.70;96.00;;;;;;5007182;28;20076;-33
2022/03/15 09:56:42;;;;;;;6.30;4.63;;;8.70;96.80;;;;;;5009795;28;20038;-33
2022/03/15 09:59:16;;;;;;;6.65;4.13;;;8.80;97.50;;;;;;5006523;28;20037;-35
2022/03/15 10:01:43;;;;;;;7.53;4.40;;;8.90;96.90;;;;;;5009034;28;20507;-33
2022/03/15 10:04:09;;;;;;;6.15;3.53;;;9.00;95.80;;;;;;5003616;28;20049;-34
2022/03/15 10:06:38;;;;;;;8.25;3.72;;;9.10;96.00;;;;;;5009415;28;20391;-34
2022/03/15 10:09:08;;;;;;;5.97;4.70;;;9.10;95.50;;;;;;5007379;28;20037;-34
2022/03/15 10:11:34;;;;;;;7.55;4.10;;;9.20;95.60;;;;;;5006131;28;20143;-34
2022/03/15 10:14:00;;;;;;;5.25;4.20;;;9.20;95.80;;;;;;4991591;28;20026;-33
2022/03/15 10:16:33;;;;;;;6.32;3.65;;;9.20;96.30;;;;;;5009942;28;20025;-34
2022/03/15 10:18:59;;;;;;;7.13;3.83;;;9.30;95.90;;;;;;5000435;28;20058;-33
2022/03/15 10:21:39;;;;;;;9.93;4.10;;;9.40;95.60;;;;;;4988387;28;20033;-34
2022/03/15 10:24:07;;;;;;;5.90;3.80;;;9.40;95.80;;;;;;5003234;28;20072;-36
2022/03/15 10:26:40;;;;;;;7.60;3.78;;;9.40;95.60;;;;;;5002313;28;20545;-36
2022/03/15 10:29:07;;;;;;;7.18;4.00;;;9.50;95.50;;;;;;5005392;28;20029;-33
2022/03/15 10:31:33;;;;;;;6.82;4.20;;;9.50;94.90;;;;;;5006795;28;20033;-34
2022/03/15 10:34:01;;;;;;;8.75;3.95;;;9.50;95.00;;;;;;5008484;28;20360;-33
2022/03/15 10:36:36;;;;;;;4.55;3.90;;;9.50;94.90;;;;;;5004478;28;20072;-33
2022/03/15 10:39:03;;;;;;;9.50;3.92;;;9.50;95.20;;;;;;5000806;28;20061;-33
2022/03/15 10:41:28;;;;;;;6.85;4.03;;;9.60;95.80;;;;;;5006348;28;20422;-35
2022/03/15 10:43:57;;;;;;;5.75;3.85;;;9.60;95.60;;;;;;5007886;28;20104;-34
2022/03/15 10:46:25;;;;;;;5.05;3.88;;;9.70;96.40;;;;;;5006947;28;20030;-35
2022/03/15 10:49:01;;;;;;;4.22;3.83;;;9.80;97.10;;;;;;5005018;28;20150;-33
2022/03/15 10:51:27;;;;;;;6.95;3.90;;;9.90;95.10;;;;;;5009808;28;20395;-34
2022/03/15 10:54:00;;;;;;;7.43;3.67;;;10.00;95.90;;;;;;5000123;28;20029;-33
2022/03/15 10:56:26;;;;;;;5.70;3.80;;;10.20;95.80;;;;;;5006378;28;20030;-34
2022/03/15 10:58:59;;;;;;;7.70;3.40;;;10.30;95.80;;;;;;5007729;28;20545;-33
2022/03/15 11:01:26;;;;;;;7.20;3.60;;;10.40;95.50;;;;;;5007556;28;20042;-34
2022/03/15 11:03:53;;;;;;;7.70;4.05;;;10.50;95.90;;;;;;5005833;28;20518;-33
2022/03/15 11:06:32;;;;;;;6.00;4.00;;;10.70;94.40;;;;;;5005068;28;20119;-36
2022/03/15 11:08:59;;;;;;;6.50;3.50;;;10.90;94.30;;;;;;5006990;28;20030;-33
2022/03/15 11:11:28;;;;;;;6.30;4.13;;;11.00;93.30;;;;;;5008237;28;20030;-34
2022/03/15 11:14:05;;;;;;;5.32;4.00;;;11.10;93.40;;;;;;4984991;28;20061;-33
2022/03/15 11:16:36;;;;;;;8.20;4.22;;;11.10;93.30;;;;;;4980621;28;20030;-33
2022/03/15 11:19:03;;;;;;;5.93;4.05;;;10.90;91.90;;;;;;5001887;28;20058;-33
2022/03/15 11:21:33;;;;;;;5.82;3.85;;;10.90;91.90;;;;;;5008058;28;20037;-34
2022/03/15 11:24:00;;;;;;;6.32;3.80;;;10.80;93.60;;;;;;5008460;28;20036;-34
2022/03/15 11:26:30;;;;;;;6.78;3.65;;;10.80;92.40;;;;;;5007067;28;20033;-33
2022/03/15 11:28:57;;;;;;;6.50;3.90;;;10.80;93.10;;;;;;4999966;28;20053;-34
2022/03/15 11:31:24;;;;;;;7.82;3.63;;;10.80;93.00;;;;;;5006455;28;20454;-34
2022/03/15 11:33:51;;;;;;;6.38;3.63;;;10.80;93.20;;;;;;5004131;28;20041;-34
2022/03/15 11:36:18;;;;;;;5.50;4.18;;;10.80;93.10;;;;;;5008821;28;20036;-34
2022/03/15 11:38:44;;;;;;;4.88;3.53;;;10.80;93.90;;;;;;5005653;28;20431;-34
2022/03/15 11:41:10;;;;;;;7.38;3.50;;;10.80;93.60;;;;;;5009043;28;20058;-33
2022/03/15 11:43:50;;;;;;;5.75;3.55;;;10.80;94.20;;;;;;4997618;28;20120;-34
2022/03/15 11:46:27;;;;;;;3.65;2.80;;;10.80;93.40;;;;;;5008974;28;20022;-35
2022/03/15 11:49:31;;;;;;;6.20;3.30;;;10.90;93.90;;;;;;5002504;28;20076;-33
2022/03/15 11:52:36;;;;;;;3.70;3.08;;;10.80;95.10;;;;;;4996652;28;20038;-33
2022/03/15 11:55:21;;;;;;;4.20;3.13;;;10.80;94.80;;;;;;4972722;28;20045;-34
2022/03/15 11:58:03;;;;;;;4.35;3.00;;;10.80;95.00;;;;;;5008217;28;20069;-33
2022/03/15 12:00:42;;;;;;;4.43;2.90;;;10.80;95.80;;;;;;5006479;28;20113;-34
2022/03/15 12:03:09;;;;;;;3.85;2.78;;;10.80;96.40;;;;;;5002878;28;20451;-34
2022/03/15 12:05:47;;;;;;;4.22;2.50;;;10.80;96.30;;;;;;5005246;28;20026;-34
2022/03/15 12:08:21;;;;;;;3.72;2.65;;;10.80;96.80;;;;;;5002682;28;20390;-33
2022/03/15 12:10:57;;;;;;;4.72;2.65;;;10.80;96.80;;;;;;5007069;28;20457;-33
2022/03/15 12:13:41;;;;;;;5.95;2.70;;;10.70;97.50;;;;;;5000937;28;20448;-35
2022/03/15 12:16:13;;;;;;;7.60;3.15;;;10.70;98.20;;;;;;4995984;28;20030;-34
2022/03/15 12:18:45;;;;;;;3.55;2.35;;;10.60;98.20;;;;;;5005827;28;20522;-33
2022/03/15 12:21:11;;;;;;;5.38;2.80;;;10.60;98.60;;;;;;5006674;28;20054;-34
2022/03/15 12:23:39;;;;;;;3.25;2.53;;;10.60;98.10;;;;;;5000732;28;20034;-33
2022/03/15 12:26:15;;;;;;;6.13;2.80;;;10.70;98.40;;;;;;5003229;28;20884;-33
2022/03/15 12:28:40;;;;;;;4.13;2.97;;;10.70;98.40;;;;;;5008050;28;20030;-34
2022/03/15 12:31:08;;;;;;;2.83;2.33;;;10.70;98.40;;;;;;5007142;28;20037;-34
2022/03/15 12:33:35;;;;;;;5.68;2.67;;;10.70;98.50;;;;;;5004149;28;20037;-33
2022/03/15 12:36:08;;;;;;;5.05;2.90;;;10.60;99.00;;;;;;5000810;28;20176;-34
2022/03/15 12:38:39;;;;;;;4.40;2.85;;;10.60;98.70;;;;;;5004521;28;20030;-33
2022/03/15 12:41:05;;;;;;;7.25;3.95;;;10.60;98.60;;;;;;5004905;28;20065;-34
2022/03/15 12:43:32;;;;;;;8.18;3.92;;;10.60;98.70;;;;;;5006814;28;20061;-35
2022/03/15 12:46:03;;;;;;;8.05;3.63;;;10.60;98.60;;;;;;5004176;28;20057;-34
2022/03/15 12:48:37;;;;;;;3.88;2.97;;;10.60;98.40;;;;;;5006603;28;20026;-34
2022/03/15 12:51:16;;;;;;;3.58;2.63;;;10.60;99.70;;;;;;5005233;28;20038;-33
2022/03/15 12:53:47;;;;;;;4.28;2.85;;;10.60;99.90;;;;;;5003871;28;20061;-34
2022/03/15 12:56:14;;;;;;;3.67;2.67;;;10.60;99.90;;;;;;5001786;28;21772;-34